Time,TemperatureF,DewpointF,PressureIn,WindDirection,WindDirectionDegrees,WindSpeedMPH,WindSpeedGustMPH,Humidity,HourlyPrecipIn,Conditions,Clouds,dailyrainin,SoftwareType,DateUTC
2013-01-16 00:06:00,27.3,21.7,30.20,NNW,337,0.0,-999.0,79,-99.99,,,0.00,Acu-Link.com,2013-01-16 05:06:00,
2013-01-16 00:21:00,27.3,22.0,30.20,NNW,337,0.0,-999.0,80,-99.99,,,0.00,Acu-Link.com,2013-01-16 05:21:00,
2013-01-16 00:36:00,27.1,21.2,30.20,South,180,0.0,-999.0,78,-99.99,,,0.00,Acu-Link.com,2013-01-16 05:36:00,
2013-01-16 00:51:00,27.1,21.8,30.19,WNW,292,0.0,-999.0,80,-99.99,,,0.00,Acu-Link.com,2013-01-16 05:51:00,
2013-01-16 01:07:00,27.1,21.2,30.21,East,90,0.0,-999.0,78,-99.99,,,0.00,Acu-Link.com,2013-01-16 06:07:00,
2013-01-16 01:22:00,27.1,21.5,30.18,East,90,0.0,-999.0,79,-99.99,,,0.00,Acu-Link.com,2013-01-16 06:22:00,
2013-01-16 01:37:00,27.1,22.1,30.20,ESE,112,0.0,-999.0,81,-99.99,,,0.00,Acu-Link.com,2013-01-16 06:37:00,
2013-01-16 01:52:00,27.1,21.8,30.20,ESE,112,0.0,-999.0,80,-99.99,,,0.00,Acu-Link.com,2013-01-16 06:52:00,
2013-01-16 02:08:00,27.1,22.1,30.19,ESE,112,0.0,-999.0,81,-99.99,,,0.00,Acu-Link.com,2013-01-16 07:08:00,
2013-01-16 02:23:00,27.0,22.3,30.19,ESE,112,0.0,-999.0,82,-99.99,,,0.00,Acu-Link.com,2013-01-16 07:23:00,
2013-01-16 02:38:00,27.0,21.7,30.18,WNW,292,0.0,-999.0,80,-99.99,,,0.00,Acu-Link.com,2013-01-16 07:38:00,
2013-01-16 02:53:00,27.0,22.0,30.18,South,180,0.0,-999.0,81,-99.99,,,0.00,Acu-Link.com,2013-01-16 07:53:00,
2013-01-16 03:08:00,27.0,22.0,30.17,WNW,292,0.0,-999.0,81,-99.99,,,0.00,Acu-Link.com,2013-01-16 08:08:00,
2013-01-16 03:24:00,27.0,22.3,30.17,WNW,292,0.0,-999.0,82,-99.99,,,0.00,Acu-Link.com,2013-01-16 08:24:00,
2013-01-16 03:39:00,27.0,21.7,30.16,West,270,0.0,-999.0,80,-99.99,,,0.00,Acu-Link.com,2013-01-16 08:39:00,
2013-01-16 03:54:00,27.0,22.0,30.15,NW,315,0.0,-999.0,81,-99.99,,,0.00,Acu-Link.com,2013-01-16 08:54:00,
2013-01-16 04:22:00,27.0,22.0,30.15,NW,315,0.0,-999.0,81,-99.99,,,0.00,Acu-Link.com,2013-01-16 09:22:00,
2013-01-16 04:37:00,27.0,22.0,30.14,NNW,337,0.0,-999.0,81,-99.99,,,0.00,Acu-Link.com,2013-01-16 09:37:00,
2013-01-16 04:53:00,27.0,22.5,30.14,NNW,337,0.0,-999.0,83,-99.99,,,0.00,Acu-Link.com,2013-01-16 09:53:00,
2013-01-16 05:08:00,27.0,22.5,30.12,NNW,337,0.0,-999.0,83,-99.99,,,0.00,Acu-Link.com,2013-01-16 10:08:00,
2013-01-16 05:23:00,27.0,22.3,30.12,SSW,202,0.0,-999.0,82,-99.99,,,0.00,Acu-Link.com,2013-01-16 10:23:00,
2013-01-16 05:38:00,27.0,22.3,30.12,West,270,0.0,-999.0,82,-99.99,,,0.00,Acu-Link.com,2013-01-16 10:38:00,
2013-01-16 05:54:00,27.0,22.3,30.12,ESE,112,0.0,-999.0,82,-99.99,,,0.00,Acu-Link.com,2013-01-16 10:54:00,
2013-01-16 06:09:00,27.0,22.5,30.11,East,90,0.0,-999.0,83,-99.99,,,0.00,Acu-Link.com,2013-01-16 11:09:00,
2013-01-16 06:24:00,26.6,23.5,30.11,ESE,112,0.0,-999.0,88,-99.99,,,0.00,Acu-Link.com,2013-01-16 11:24:00,
2013-01-16 06:39:00,26.2,23.7,30.10,ESE,112,0.0,-999.0,90,-99.99,,,0.00,Acu-Link.com,2013-01-16 11:39:00,
2013-01-16 06:55:00,25.9,23.9,30.10,South,180,0.0,-999.0,92,-99.99,,,0.00,Acu-Link.com,2013-01-16 11:55:00,
2013-01-16 07:10:00,25.5,23.8,30.10,ESE,112,0.0,-999.0,93,-99.99,,,0.00,Acu-Link.com,2013-01-16 12:10:00,
2013-01-16 07:25:00,25.5,24.0,30.10,NW,315,0.0,-999.0,94,-99.99,,,0.00,Acu-Link.com,2013-01-16 12:25:00,
2013-01-16 07:40:00,25.5,24.0,30.10,East,90,0.0,-999.0,94,-99.99,,,0.00,Acu-Link.com,2013-01-16 12:40:00,
2013-01-16 07:56:00,25.5,24.3,30.11,North,0,0.0,-999.0,95,-99.99,,,0.00,Acu-Link.com,2013-01-16 12:56:00,
2013-01-16 08:11:00,25.5,24.3,30.10,SSW,202,0.0,-999.0,95,-99.99,,,0.00,Acu-Link.com,2013-01-16 13:11:00,
2013-01-16 08:26:00,25.5,24.3,30.10,NNE,22,0.0,-999.0,95,-99.99,,,0.00,Acu-Link.com,2013-01-16 13:26:00,
2013-01-16 08:41:00,25.7,24.5,30.07,NNW,337,0.0,-999.0,95,-99.99,,,0.00,Acu-Link.com,2013-01-16 13:41:00,
2013-01-16 08:56:00,25.9,24.4,30.09,SE,135,0.0,-999.0,94,-99.99,,,0.00,Acu-Link.com,2013-01-16 13:56:00,
2013-01-16 09:12:00,26.1,24.6,30.07,West,270,0.0,-999.0,94,-99.99,,,0.00,Acu-Link.com,2013-01-16 14:12:00,
2013-01-16 09:27:00,26.2,25.0,30.07,ENE,67,0.0,-999.0,95,-99.99,,,0.00,Acu-Link.com,2013-01-16 14:27:00,
2013-01-16 09:42:00,26.6,25.4,30.05,ESE,112,0.0,-999.0,95,-99.99,,,0.00,Acu-Link.com,2013-01-16 14:42:00,
2013-01-16 09:57:00,26.8,25.6,30.04,South,180,0.0,-999.0,95,-99.99,,,0.00,Acu-Link.com,2013-01-16 14:57:00,
2013-01-16 10:13:00,27.3,26.1,30.03,SSW,202,0.0,-999.0,95,-99.99,,,0.00,Acu-Link.com,2013-01-16 15:13:00,
2013-01-16 10:28:00,27.3,25.8,30.02,SSW,202,0.0,-999.0,94,-99.99,,,0.00,Acu-Link.com,2013-01-16 15:28:00,
2013-01-16 10:43:00,27.3,25.8,30.00,SW,225,0.0,-999.0,94,-99.99,,,0.00,Acu-Link.com,2013-01-16 15:43:00,
2013-01-16 10:58:00,27.5,26.0,30.00,SSW,202,0.0,-999.0,94,-99.99,,,0.00,Acu-Link.com,2013-01-16 15:58:00,
2013-01-16 11:13:00,27.9,26.4,29.97,SW,225,0.0,-999.0,94,-99.99,,,0.00,Acu-Link.com,2013-01-16 16:13:00,
2013-01-16 11:29:00,27.9,26.4,29.96,South,180,0.0,-999.0,94,-99.99,,,0.00,Acu-Link.com,2013-01-16 16:29:00,
2013-01-16 11:44:00,28.2,26.7,29.95,SW,225,0.0,-999.0,94,-99.99,,,0.00,Acu-Link.com,2013-01-16 16:44:00,
2013-01-16 11:59:00,28.2,26.7,29.94,SW,225,0.0,-999.0,94,-99.99,,,0.00,Acu-Link.com,2013-01-16 16:59:00,
2013-01-16 12:14:00,28.4,27.2,29.93,SSW,202,0.0,-999.0,95,-99.99,,,0.00,Acu-Link.com,2013-01-16 17:14:00,
2013-01-16 12:29:00,28.6,27.1,29.92,SSW,202,0.0,-999.0,94,-99.99,,,0.00,Acu-Link.com,2013-01-16 17:29:00,
2013-01-16 12:45:00,29.1,27.6,29.90,ESE,112,0.0,-999.0,94,-99.99,,,0.00,Acu-Link.com,2013-01-16 17:45:00,
2013-01-16 13:00:00,29.5,28.0,29.90,SSW,202,0.0,-999.0,94,-99.99,,,0.00,Acu-Link.com,2013-01-16 18:00:00,
2013-01-16 13:15:00,29.1,27.6,29.89,SSW,202,0.0,-999.0,94,-99.99,,,0.00,Acu-Link.com,2013-01-16 18:15:00,
2013-01-16 13:30:00,29.3,27.8,29.88,SSW,202,0.0,-999.0,94,-99.99,,,0.00,Acu-Link.com,2013-01-16 18:30:00,
2013-01-16 13:45:00,28.9,27.4,29.87,South,180,0.0,-999.0,94,-99.99,,,0.00,Acu-Link.com,2013-01-16 18:45:00,
2013-01-16 14:01:00,28.9,27.4,29.87,SSE,157,0.0,-999.0,94,-99.99,,,0.00,Acu-Link.com,2013-01-16 19:01:00,
2013-01-16 14:16:00,29.1,27.9,29.85,ESE,112,0.0,-999.0,95,-99.99,,,0.00,Acu-Link.com,2013-01-16 19:16:00,
2013-01-16 14:31:00,28.9,27.4,29.84,SSE,157,0.0,-999.0,94,-99.99,,,0.00,Acu-Link.com,2013-01-16 19:31:00,
2013-01-16 14:46:00,28.9,27.7,29.85,SSW,202,0.0,-999.0,95,-99.99,,,0.00,Acu-Link.com,2013-01-16 19:46:00,
2013-01-16 15:01:00,29.1,28.1,29.84,South,180,0.0,-999.0,96,-99.99,,,0.00,Acu-Link.com,2013-01-16 20:01:00,
2013-01-16 15:17:00,28.8,27.8,29.83,South,180,0.0,-999.0,96,-99.99,,,0.00,Acu-Link.com,2013-01-16 20:17:00,
2013-01-16 15:32:00,28.8,27.8,29.83,East,90,0.0,-999.0,96,-99.99,,,0.00,Acu-Link.com,2013-01-16 20:32:00,
2013-01-16 15:48:00,28.6,27.6,29.82,SSE,157,0.0,-999.0,96,-99.99,,,0.00,Acu-Link.com,2013-01-16 20:48:00,
2013-01-16 16:03:00,28.4,27.4,29.83,South,180,0.0,-999.0,96,-99.99,,,0.00,Acu-Link.com,2013-01-16 21:03:00,
2013-01-16 16:18:00,28.2,27.5,29.83,SSE,157,0.0,-999.0,97,-99.99,,,0.00,Acu-Link.com,2013-01-16 21:18:00,
2013-01-16 16:34:00,28.0,27.3,29.83,SSE,157,0.0,-999.0,97,-99.99,,,0.00,Acu-Link.com,2013-01-16 21:34:00,
2013-01-16 16:49:00,28.0,27.3,29.82,SSW,202,0.0,-999.0,97,-99.99,,,0.00,Acu-Link.com,2013-01-16 21:49:00,
2013-01-16 17:04:00,27.9,27.2,29.82,South,180,0.0,-999.0,97,-99.99,,,0.00,Acu-Link.com,2013-01-16 22:04:00,
2013-01-16 17:19:00,27.7,27.0,29.80,SSE,157,0.0,-999.0,97,-99.99,,,0.00,Acu-Link.com,2013-01-16 22:19:00,
2013-01-16 17:34:00,27.7,27.0,29.79,South,180,0.0,-999.0,97,-99.99,,,0.00,Acu-Link.com,2013-01-16 22:34:00,
2013-01-16 17:50:00,27.7,27.0,29.80,WSW,247,0.0,-999.0,97,-99.99,,,0.00,Acu-Link.com,2013-01-16 22:50:00,
2013-01-16 18:05:00,27.3,26.6,29.79,ESE,112,0.0,-999.0,97,-99.99,,,0.00,Acu-Link.com,2013-01-16 23:05:00,
2013-01-16 18:20:00,27.3,26.6,29.78,ESE,112,0.0,-999.0,97,-99.99,,,0.00,Acu-Link.com,2013-01-16 23:20:00,
2013-01-16 18:36:00,27.1,26.4,29.78,North,0,0.0,-999.0,97,-99.99,,,0.00,Acu-Link.com,2013-01-16 23:36:00,
2013-01-16 18:51:00,27.0,26.5,29.79,SE,135,0.0,-999.0,98,-99.99,,,0.00,Acu-Link.com,2013-01-16 23:51:00,
2013-01-16 19:06:00,27.0,26.5,29.78,NNE,22,0.0,-999.0,98,-99.99,,,0.00,Acu-Link.com,2013-01-17 00:06:00,
2013-01-16 19:21:00,27.0,26.5,29.78,WNW,292,0.0,-999.0,98,-99.99,,,0.00,Acu-Link.com,2013-01-17 00:21:00,
2013-01-16 19:36:00,27.0,26.5,29.77,WNW,292,0.0,-999.0,98,-99.99,,,0.00,Acu-Link.com,2013-01-17 00:36:00,
2013-01-16 19:52:00,27.0,26.5,29.77,SE,135,0.0,-999.0,98,-99.99,,,0.00,Acu-Link.com,2013-01-17 00:52:00,
2013-01-16 20:07:00,27.0,26.5,29.77,SE,135,0.0,-999.0,98,-99.99,,,0.00,Acu-Link.com,2013-01-17 01:07:00,
2013-01-16 20:22:00,27.0,26.5,29.77,ENE,67,0.0,-999.0,98,-99.99,,,0.00,Acu-Link.com,2013-01-17 01:22:00,
2013-01-16 20:37:00,26.8,26.3,29.77,NNE,22,0.0,-999.0,98,-99.99,,,0.00,Acu-Link.com,2013-01-17 01:37:00,
2013-01-16 20:52:00,26.8,26.3,29.77,SSW,202,0.0,-999.0,98,-99.99,,,0.00,Acu-Link.com,2013-01-17 01:52:00,
2013-01-16 21:08:00,26.8,26.3,29.76,NW,315,0.0,-999.0,98,-99.99,,,0.00,Acu-Link.com,2013-01-17 02:08:00,
2013-01-16 21:23:00,26.8,26.3,29.75,SW,225,0.0,-999.0,98,-99.99,,,0.00,Acu-Link.com,2013-01-17 02:23:00,
2013-01-16 21:38:00,26.8,26.3,29.75,NNE,22,0.0,-999.0,98,-99.99,,,0.00,Acu-Link.com,2013-01-17 02:38:00,
2013-01-16 21:53:00,26.6,26.1,29.75,NW,315,0.0,-999.0,98,-99.99,,,0.00,Acu-Link.com,2013-01-17 02:53:00,
2013-01-16 22:09:00,26.2,25.7,29.74,NW,315,0.0,-999.0,98,-99.99,,,0.00,Acu-Link.com,2013-01-17 03:09:00,
2013-01-16 22:24:00,25.9,25.2,29.75,West,270,0.0,-999.0,97,-99.99,,,0.00,Acu-Link.com,2013-01-17 03:24:00,
2013-01-16 22:39:00,25.7,25.0,29.73,WNW,292,0.0,-999.0,97,-99.99,,,0.00,Acu-Link.com,2013-01-17 03:39:00,
2013-01-16 22:55:00,25.5,24.8,29.73,NW,315,0.0,-999.0,97,-99.99,,,0.00,Acu-Link.com,2013-01-17 03:55:00,
2013-01-16 23:10:00,25.3,24.6,29.73,WNW,292,0.0,-999.0,97,-99.99,,,0.00,Acu-Link.com,2013-01-17 04:10:00,
2013-01-16 23:25:00,25.3,24.6,29.73,WNW,292,0.0,-999.0,97,-99.99,,,0.00,Acu-Link.com,2013-01-17 04:25:00,
2013-01-16 23:41:00,25.3,24.6,29.72,NW,315,0.0,-999.0,97,-99.99,,,0.00,Acu-Link.com,2013-01-17 04:41:00,
2013-01-16 23:56:00,25.3,24.6,29.71,ESE,112,0.0,-999.0,97,-99.99,,,0.00,Acu-Link.com,2013-01-17 04:56:00,